Time;durP1;ratioP1;P1;durP2;ratioP2;P2;SDS_P1;SDS_P2;PMS_P1;PMS_P2;Temp;Humidity;BMP_temperature;BMP_pressure;BME280_temperature;BME280_humidity;BME280_pressure;Samples;Min_cycle;Max_cycle;Signal;HPM_P1;HPM_P2
2023/08/11 00:00:21;;;;;;;2.30;1.67;;;;;;;15.03;71.21;95193.34;5074214;28;20054;-82
2023/08/11 00:02:49;;;;;;;5.18;1.60;;;;;;;15.08;71.58;95193.75;5074489;28;20031;-82
2023/08/11 00:05:17;;;;;;;3.58;1.67;;;;;;;14.92;71.39;95196.97;5090705;28;20039;-83
2023/08/11 00:07:43;;;;;;;2.25;1.75;;;;;;;14.89;71.68;95199.88;5074295;28;20615;-83
2023/08/11 00:10:09;;;;;;;3.10;1.88;;;;;;;14.90;72.38;95191.03;5090753;28;20040;-81
2023/08/11 00:12:35;;;;;;;3.70;1.83;;;;;;;15.08;70.00;95189.31;5090637;28;20162;-81
2023/08/11 00:15:00;;;;;;;4.32;1.80;;;;;;;15.07;71.11;95192.91;5090458;28;20028;-82
2023/08/11 00:17:26;;;;;;;2.17;1.65;;;;;;;15.04;70.92;95193.19;5073808;28;20024;-81
2023/08/11 00:19:52;;;;;;;3.22;1.60;;;;;;;14.92;69.84;95191.75;5057136;28;20047;-82
2023/08/11 00:22:17;;;;;;;2.58;1.52;;;;;;;14.89;70.15;95177.16;5073727;28;20035;-79
2023/08/11 00:24:43;;;;;;;2.75;1.50;;;;;;;14.82;70.78;95186.56;5091674;28;20448;-82
2023/08/11 00:27:08;;;;;;;4.60;1.70;;;;;;;14.78;71.06;95181.75;5090598;28;20494;-82
2023/08/11 00:29:34;;;;;;;2.50;1.85;;;;;;;14.69;71.94;95175.59;5090405;28;20032;-82
2023/08/11 00:32:00;;;;;;;3.70;1.90;;;;;;;14.77;72.42;95185.34;5072681;28;20028;-82
2023/08/11 00:34:25;;;;;;;4.20;2.17;;;;;;;14.49;72.53;95190.50;5090105;28;20042;-83
2023/08/11 00:36:51;;;;;;;3.55;1.70;;;;;;;14.43;71.83;95188.41;5090416;28;20027;-83
2023/08/11 00:39:16;;;;;;;3.50;1.67;;;;;;;14.30;71.42;95183.50;5073482;28;20035;-83
2023/08/11 00:41:42;;;;;;;2.25;1.60;;;;;;;14.43;70.79;95184.03;5073127;28;20040;-83
2023/08/11 00:44:07;;;;;;;2.95;1.50;;;;;;;14.45;70.79;95189.94;5091665;28;20036;-82
2023/08/11 00:46:32;;;;;;;2.50;1.58;;;;;;;14.34;71.38;95192.72;5090428;28;20028;-82
2023/08/11 00:48:58;;;;;;;2.63;1.83;;;;;;;14.22;71.91;95201.69;5073383;28;20032;-82
2023/08/11 00:51:23;;;;;;;2.55;1.80;;;;;;;14.19;71.57;95197.56;5073097;28;20032;-83
2023/08/11 00:53:49;;;;;;;3.58;2.05;;;;;;;14.28;71.29;95195.88;5073360;28;20032;-82
2023/08/11 00:56:15;;;;;;;4.68;1.90;;;;;;;14.19;71.61;95179.25;5090270;28;20490;-81
2023/08/11 00:58:40;;;;;;;4.97;1.80;;;;;;;14.14;71.27;95189.31;5090217;28;20352;-82
2023/08/11 01:01:06;;;;;;;3.58;1.80;;;;;;;14.12;71.68;95204.28;5056224;28;20497;-82
2023/08/11 01:03:31;;;;;;;2.33;1.85;;;;;;;14.05;71.88;95200.59;5090040;28;20027;-83
2023/08/11 01:06:23;;;;;;;4.10;2.00;;;;;;;13.96;72.02;95202.25;5056436;28;20285;-82
2023/08/11 01:09:07;;;;;;;3.47;2.10;;;;;;;13.99;72.00;95201.16;5079358;28;20099;-82
2023/08/11 01:11:49;;;;;;;4.32;1.95;;;;;;;14.03;72.01;95197.28;5091295;28;20040;-83
2023/08/11 01:14:18;;;;;;;2.22;1.70;;;;;;;13.83;72.17;95165.16;5090037;28;20028;-82
2023/08/11 01:16:48;;;;;;;3.40;1.90;;;;;;;13.91;72.34;95199.22;5073160;28;20040;-82
2023/08/11 01:19:19;;;;;;;3.13;1.83;;;;;;;13.85;72.80;95194.56;5089480;28;20151;-82
2023/08/11 01:21:45;;;;;;;3.33;2.20;;;;;;;13.77;73.24;95194.44;5072791;28;20478;-82
2023/08/11 01:24:10;;;;;;;4.38;2.13;;;;;;;13.74;73.51;95192.91;5073161;28;20028;-82
2023/08/11 01:26:36;;;;;;;4.03;1.90;;;;;;;13.87;72.39;95187.41;5073096;28;20028;-82
2023/08/11 01:29:01;;;;;;;2.70;2.10;;;;;;;13.75;73.17;95194.56;5089643;28;20032;-82
2023/08/11 01:31:27;;;;;;;2.83;2.25;;;;;;;13.81;73.14;95190.56;5056351;28;20028;-82
2023/08/11 01:33:52;;;;;;;3.17;2.10;;;;;;;13.73;73.70;95199.06;5072811;28;20039;-82
2023/08/11 01:36:18;;;;;;;3.05;1.90;;;;;;;13.91;72.77;95190.56;5073031;28;20058;-82
2023/08/11 01:38:43;;;;;;;3.53;1.85;;;;;;;13.84;72.87;95196.31;5089534;28;20051;-81
2023/08/11 01:41:08;;;;;;;5.05;1.90;;;;;;;13.62;73.48;95194.84;5089765;28;20028;-82
2023/08/11 01:43:34;;;;;;;2.80;1.83;;;;;;;13.79;72.84;95179.44;5093166;28;20024;-82
2023/08/11 01:45:59;;;;;;;2.30;1.70;;;;;;;13.69;73.36;95181.22;5076548;28;20036;-81
2023/08/11 01:48:25;;;;;;;4.50;1.80;;;;;;;13.68;73.44;95190.00;5059344;28;20513;-82
2023/08/11 01:50:50;;;;;;;3.60;1.80;;;;;;;13.76;72.93;95198.81;5076461;28;20036;-82
2023/08/11 01:53:16;;;;;;;2.42;2.05;;;;;;;13.68;73.16;95198.69;5059680;28;20044;-82
2023/08/11 01:55:41;;;;;;;3.08;2.17;;;;;;;13.60;73.86;95178.47;5093128;28;20059;-83
2023/08/11 01:58:07;;;;;;;3.63;2.13;;;;;;;13.60;73.68;95177.66;5093017;28;20024;-81
2023/08/11 02:00:32;;;;;;;2.50;1.83;;;;;;;13.62;73.50;95194.84;5093331;28;20024;-83
2023/08/11 02:02:58;;;;;;;2.58;2.00;;;;;;;13.68;72.86;95185.63;5093112;28;20039;-82
2023/08/11 02:05:24;;;;;;;4.47;2.10;;;;;;;13.65;73.80;95198.97;5076429;28;20028;-82
2023/08/11 02:07:50;;;;;;;3.20;1.92;;;;;;;13.58;73.62;95190.84;5092646;28;20457;-81
2023/08/11 02:10:16;;;;;;;3.35;2.28;;;;;;;13.52;74.12;95198.41;5059664;28;20024;-82
2023/08/11 02:12:42;;;;;;;5.10;2.03;;;;;;;13.66;74.47;95205.81;5092875;28;20043;-81
2023/08/11 02:15:07;;;;;;;3.25;2.10;;;;;;;13.49;74.39;95189.03;5076099;28;20232;-82
2023/08/11 02:17:33;;;;;;;2.90;2.10;;;;;;;13.78;74.51;95188.22;5092846;28;20478;-82
2023/08/11 02:20:00;;;;;;;2.75;2.10;;;;;;;13.73;73.06;95191.25;5093931;28;20087;-82
2023/08/11 02:22:25;;;;;;;4.18;2.28;;;;;;;13.67;73.68;95180.53;5092855;28;20060;-81
2023/08/11 02:24:51;;;;;;;3.97;1.90;;;;;;;13.70;73.17;95191.53;5092505;28;20055;-82
2023/08/11 02:27:17;;;;;;;4.03;2.10;;;;;;;13.71;73.94;95197.59;5075710;28;20039;-83
2023/08/11 02:29:42;;;;;;;2.90;2.10;;;;;;;13.75;73.22;95194.56;5092723;28;20032;-82
2023/08/11 02:32:08;;;;;;;4.95;2.30;;;;;;;13.76;73.59;95205.81;5092712;28;20032;-80
2023/08/11 02:34:34;;;;;;;2.85;2.20;;;;;;;13.58;73.45;95195.22;5092594;28;20032;-83
2023/08/11 02:36:59;;;;;;;3.75;2.03;;;;;;;13.72;73.94;95207.88;5092204;28;20032;-81
2023/08/11 02:39:24;;;;;;;4.40;2.13;;;;;;;13.69;73.96;95202.13;5075712;28;20039;-83
2023/08/11 02:41:50;;;;;;;5.07;2.10;;;;;;;13.61;73.77;95208.81;5093689;28;20031;-83
2023/08/11 02:44:15;;;;;;;3.00;2.00;;;;;;;13.68;73.89;95208.28;5092376;28;20027;-82
2023/08/11 02:46:41;;;;;;;5.30;2.10;;;;;;;13.47;74.46;95211.00;5075265;28;20559;-83
2023/08/11 02:49:07;;;;;;;2.88;1.85;;;;;;;13.55;74.37;95208.56;5092266;28;20032;-83
2023/08/11 02:51:32;;;;;;;2.90;1.98;;;;;;;13.61;74.05;95213.22;5075469;28;20032;-82
2023/08/11 02:53:58;;;;;;;5.32;2.10;;;;;;;13.41;74.64;95217.59;5074565;28;20032;-83
2023/08/11 02:56:23;;;;;;;3.78;2.05;;;;;;;13.45;74.78;95212.94;5074996;28;20032;-83
2023/08/11 02:58:49;;;;;;;2.45;1.92;;;;;;;13.46;74.67;95214.59;5058249;28;20016;-83
2023/08/11 03:01:14;;;;;;;3.00;2.30;;;;;;;13.32;75.11;95219.22;5075165;28;20027;-82
2023/08/11 03:03:42;;;;;;;3.40;2.38;;;;;;;13.32;74.97;95218.41;5091726;28;20028;-84
2023/08/11 03:06:10;;;;;;;2.70;2.17;;;;;;;13.40;75.08;95205.53;5092769;28;20032;-84
2023/08/11 03:08:37;;;;;;;5.07;2.28;;;;;;;13.35;74.82;95213.75;5091939;28;20103;-84
2023/08/11 03:11:03;;;;;;;4.53;1.88;;;;;;;13.45;74.77;95213.75;5075058;28;20051;-83
2023/08/11 03:13:29;;;;;;;4.20;2.10;;;;;;;13.55;74.55;95216.38;5091748;28;20023;-84
2023/08/11 03:15:54;;;;;;;3.80;2.00;;;;;;;13.41;74.62;95215.81;5091351;28;20417;-83
2023/08/11 03:18:20;;;;;;;3.60;2.00;;;;;;;13.50;74.43;95214.16;5091728;28;20027;-82
2023/08/11 03:20:45;;;;;;;4.63;2.13;;;;;;;13.50;74.67;95216.78;5074551;28;20067;-83
2023/08/11 03:23:11;;;;;;;3.38;2.03;;;;;;;13.43;75.05;95225.28;5074750;28;20032;-80
2023/08/11 03:25:36;;;;;;;3.10;2.28;;;;;;;13.33;75.48;95226.09;5091303;28;20024;-83
2023/08/11 03:28:03;;;;;;;2.90;2.20;;;;;;;13.22;75.44;95207.09;5091594;28;20094;-83
2023/08/11 03:30:29;;;;;;;3.90;2.15;;;;;;;13.40;75.76;95229.00;5091598;28;20043;-82
2023/08/11 03:32:54;;;;;;;3.50;2.00;;;;;;;13.47;75.20;95218.84;5091021;28;20075;-83
2023/08/11 03:35:19;;;;;;;3.03;2.40;;;;;;;13.30;75.78;95231.56;5074666;28;20027;-83
2023/08/11 03:37:45;;;;;;;3.25;2.00;;;;;;;13.18;75.20;95190.88;5074386;28;20039;-84
2023/08/11 03:40:13;;;;;;;3.80;2.17;;;;;;;13.14;75.67;95215.56;5074388;28;20077;-83
2023/08/11 03:42:42;;;;;;;4.00;2.38;;;;;;;13.41;74.95;95217.59;5091076;28;20093;-83
2023/08/11 03:45:11;;;;;;;4.30;2.38;;;;;;;13.31;75.15;95230.59;5074300;28;20043;-82
2023/08/11 03:47:37;;;;;;;5.97;2.50;;;;;;;13.27;75.47;95231.84;5074432;28;20028;-83
2023/08/11 03:50:02;;;;;;;2.55;1.92;;;;;;;13.32;75.28;95234.06;5057592;28;20035;-83
2023/08/11 03:52:28;;;;;;;2.80;2.00;;;;;;;13.04;75.86;95226.00;5090931;28;20035;-83
2023/08/11 03:54:53;;;;;;;5.47;2.15;;;;;;;13.28;75.70;95230.88;5091964;28;20089;-83
2023/08/11 03:57:19;;;;;;;3.15;2.20;;;;;;;13.06;75.79;95218.00;5091090;28;20032;-84
2023/08/11 03:59:44;;;;;;;4.05;2.40;;;;;;;13.26;76.24;95237.19;5090875;28;20031;-83
2023/08/11 04:02:09;;;;;;;3.55;2.28;;;;;;;13.15;76.18;95232.88;5092057;28;20046;-83
2023/08/11 04:04:35;;;;;;;2.50;1.98;;;;;;;13.25;76.54;95214.66;5090318;28;20040;-84
2023/08/11 04:07:00;;;;;;;3.15;2.30;;;;;;;13.12;77.22;95228.75;5090102;28;20025;-82
2023/08/11 04:09:29;;;;;;;2.67;2.15;;;;;;;12.86;77.99;95228.38;5091925;28;20035;-83
2023/08/11 04:11:54;;;;;;;2.75;2.20;;;;;;;12.79;78.92;95222.03;5090795;28;20047;-83
2023/08/11 04:14:19;;;;;;;3.10;2.70;;;;;;;12.88;78.27;95215.22;5073415;28;20498;-83
2023/08/11 04:16:46;;;;;;;3.65;2.40;;;;;;;12.81;78.86;95229.72;5090681;28;20031;-83
2023/08/11 04:19:12;;;;;;;4.28;2.40;;;;;;;13.15;78.35;95225.06;5091743;28;20087;-83
2023/08/11 04:21:39;;;;;;;3.60;2.58;;;;;;;13.09;77.95;95230.78;5090387;28;20031;-83
2023/08/11 04:24:04;;;;;;;4.00;2.40;;;;;;;13.19;77.55;95214.22;5090547;28;20024;-82
2023/08/11 04:26:30;;;;;;;5.60;2.60;;;;;;;13.28;77.62;95238.72;5073699;28;20101;-84
2023/08/11 04:28:55;;;;;;;4.38;2.60;;;;;;;13.40;77.32;95232.44;5073602;28;20020;-83
2023/08/11 04:31:21;;;;;;;5.20;3.33;;;;;;;13.40;77.32;95245.50;5090391;28;20032;-83
2023/08/11 04:33:46;;;;;;;4.35;3.10;;;;;;;13.67;76.50;95249.22;5090504;28;20028;-81
2023/08/11 04:36:11;;;;;;;3.53;3.00;;;;;;;13.72;76.08;95257.47;5073586;28;20040;-82
2023/08/11 04:38:37;;;;;;;8.65;3.58;;;;;;;13.75;75.48;95259.81;5091654;28;20020;-83
2023/08/11 04:41:02;;;;;;;7.85;3.38;;;;;;;13.87;75.00;95255.28;5091259;28;20044;-82
2023/08/11 04:43:29;;;;;;;5.88;3.30;;;;;;;14.20;74.04;95246.22;5073470;28;20468;-83
2023/08/11 04:45:54;;;;;;;7.22;2.95;;;;;;;14.34;73.68;95252.00;5091538;28;20093;-82
2023/08/11 04:48:19;;;;;;;6.68;3.22;;;;;;;14.72;72.80;95257.19;5091558;28;20032;-83
2023/08/11 04:50:54;;;;;;;5.40;2.92;;;;;;;15.22;69.94;95252.63;5089893;28;20122;-82
2023/08/11 04:53:21;;;;;;;9.02;3.42;;;;;;;15.27;69.25;95243.38;5089929;28;20413;-84
2023/08/11 04:55:46;;;;;;;5.07;3.35;;;;;;;15.50;68.59;95253.44;5091406;28;20032;-82
2023/08/11 04:58:11;;;;;;;3.42;2.72;;;;;;;15.86;68.28;95254.34;5090289;28;20031;-83
2023/08/11 05:00:37;;;;;;;4.70;3.13;;;;;;;16.06;67.49;95263.69;5056364;28;20030;-83
2023/08/11 05:03:03;;;;;;;4.28;3.33;;;;;;;16.37;65.92;95252.81;5073196;28;20028;-82
2023/08/11 05:05:29;;;;;;;5.72;3.35;;;;;;;16.67;64.87;95242.88;5089993;28;20031;-84
2023/08/11 05:07:54;;;;;;;4.32;3.10;;;;;;;16.72;63.72;95238.00;5090077;28;20054;-84
2023/08/11 05:10:20;;;;;;;7.00;3.40;;;;;;;16.95;63.90;95249.63;5089763;28;20028;-84
2023/08/11 05:12:45;;;;;;;6.85;3.30;;;;;;;17.00;64.36;95249.19;5073230;28;20032;-84
2023/08/11 05:15:11;;;;;;;4.90;3.08;;;;;;;17.18;64.89;95254.34;5090011;28;20020;-83
2023/08/11 05:17:37;;;;;;;4.88;3.28;;;;;;;17.18;63.24;95256.97;5058800;28;20032;-83
2023/08/11 05:20:06;;;;;;;4.57;3.00;;;;;;;17.33;63.69;95236.22;5076753;28;20047;-82
2023/08/11 05:22:32;;;;;;;5.47;3.25;;;;;;;17.59;62.60;95255.34;5093978;28;20028;-83
2023/08/11 05:24:57;;;;;;;5.45;3.55;;;;;;;17.50;62.85;95252.84;5076755;28;20028;-83
2023/08/11 05:27:22;;;;;;;3.10;2.80;;;;;;;17.74;63.12;95245.03;5094009;28;20031;-82
2023/08/11 05:29:49;;;;;;;7.60;4.00;;;;;;;17.79;62.98;95241.97;5093391;28;20498;-83
2023/08/11 05:32:14;;;;;;;7.65;4.30;;;;;;;18.14;61.33;95251.38;5094031;28;20036;-82
2023/08/11 05:34:40;;;;;;;7.38;4.55;;;;;;;18.23;60.58;95255.66;5076579;28;20028;-83
2023/08/11 05:37:05;;;;;;;5.90;4.22;;;;;;;18.09;61.34;95251.88;5077048;28;20028;-83
2023/08/11 05:39:32;;;;;;;6.82;4.20;;;;;;;18.02;61.27;95264.00;5094507;28;20031;-82
2023/08/11 05:41:57;;;;;;;6.35;4.00;;;;;;;18.16;61.63;95262.53;5095085;28;20032;-83
2023/08/11 05:44:23;;;;;;;10.38;4.57;;;;;;;18.39;60.30;95261.94;5076633;28;20482;-83
2023/08/11 05:46:48;;;;;;;7.13;3.92;;;;;;;18.41;60.75;95258.13;5094934;28;20032;-82
2023/08/11 05:49:14;;;;;;;6.78;3.28;;;;;;;18.42;60.38;95265.03;5094290;28;20047;-82
2023/08/11 05:51:39;;;;;;;5.85;3.78;;;;;;;18.38;60.73;95257.63;5093468;28;20028;-83
2023/08/11 05:54:04;;;;;;;6.20;3.60;;;;;;;18.81;59.28;95248.59;5059680;28;20039;-83
2023/08/11 05:56:30;;;;;;;6.50;3.10;;;;;;;18.91;60.33;95269.47;5093352;28;20032;-83
2023/08/11 05:58:55;;;;;;;4.55;3.30;;;;;;;19.14;59.22;95264.34;5094053;28;20459;-82
2023/08/11 06:01:21;;;;;;;3.63;2.83;;;;;;;19.43;59.05;95271.63;5094608;28;20032;-83
2023/08/11 06:03:46;;;;;;;4.95;2.67;;;;;;;19.33;57.73;95277.06;5094479;28;20023;-83
2023/08/11 06:06:12;;;;;;;5.30;2.80;;;;;;;19.29;57.98;95272.34;5092726;28;20039;-77
2023/08/11 06:08:37;;;;;;;4.28;2.72;;;;;;;19.11;58.18;95244.41;5092498;28;20028;-77
2023/08/11 06:11:03;;;;;;;4.88;3.13;;;;;;;19.15;58.17;95264.16;5092357;28;20421;-76
2023/08/11 06:13:28;;;;;;;3.63;2.97;;;;;;;19.06;58.55;95261.72;5092334;28;20024;-77
2023/08/11 06:15:54;;;;;;;4.70;2.80;;;;;;;19.22;58.38;95271.38;5075534;28;20097;-77
2023/08/11 06:18:19;;;;;;;3.30;2.72;;;;;;;19.29;57.86;95274.97;5092344;28;20073;-77
2023/08/11 06:20:44;;;;;;;6.30;2.92;;;;;;;19.00;59.19;95279.00;5092018;28;20502;-77
2023/08/11 06:23:10;;;;;;;6.25;2.95;;;;;;;19.03;59.02;95283.09;5075456;28;20024;-77
2023/08/11 06:25:36;;;;;;;4.60;2.78;;;;;;;18.96;59.40;95277.69;5093628;28;20020;-77
2023/08/11 06:28:01;;;;;;;6.85;2.83;;;;;;;19.13;58.84;95279.28;5091552;28;20032;-76
2023/08/11 06:30:28;;;;;;;2.83;2.30;;;;;;;19.16;58.68;95288.66;5074722;28;20516;-77
2023/08/11 06:32:54;;;;;;;3.55;2.72;;;;;;;19.18;57.63;95286.69;5093128;28;20032;-76
2023/08/11 06:35:19;;;;;;;3.58;2.20;;;;;;;19.29;57.22;95267.88;5091888;28;20032;-77
2023/08/11 06:37:45;;;;;;;4.47;2.30;;;;;;;19.58;57.22;95277.81;5091927;28;20040;-78
2023/08/11 06:40:11;;;;;;;5.43;2.70;;;;;;;19.68;57.81;95282.91;5075156;28;20023;-76
2023/08/11 06:42:38;;;;;;;7.03;3.08;;;;;;;19.47;57.64;95278.19;5091894;28;20115;-77
2023/08/11 06:45:04;;;;;;;5.35;2.90;;;;;;;19.83;55.35;95280.38;5074822;28;20177;-76
2023/08/11 06:47:31;;;;;;;4.65;2.40;;;;;;;20.00;55.99;95281.94;5091894;28;20130;-77
2023/08/11 06:49:56;;;;;;;7.18;3.22;;;;;;;19.81;56.46;95290.28;5091662;28;20020;-76
2023/08/11 06:52:22;;;;;;;5.22;3.17;;;;;;;19.84;56.78;95287.31;5093365;28;20063;-77
2023/08/11 06:54:47;;;;;;;5.03;3.33;;;;;;;19.62;57.66;95291.50;5074523;28;20036;-77
2023/08/11 06:57:13;;;;;;;7.25;3.50;;;;;;;19.63;57.73;95293.94;5074742;28;20097;-77
2023/08/11 06:59:38;;;;;;;4.85;3.50;;;;;;;19.70;57.51;95291.47;5092656;28;20429;-76
2023/08/11 07:02:03;;;;;;;5.75;3.30;;;;;;;19.91;57.76;95292.69;5091532;28;20036;-76
2023/08/11 07:04:29;;;;;;;5.13;3.47;;;;;;;20.31;56.66;95291.63;5091352;28;20433;-76
2023/08/11 07:06:55;;;;;;;4.55;3.40;;;;;;;20.29;56.05;95296.25;5091492;28;20032;-77
2023/08/11 07:09:21;;;;;;;6.68;3.90;;;;;;;20.22;55.77;95292.66;5092624;28;20386;-77
2023/08/11 07:11:46;;;;;;;8.00;4.22;;;;;;;20.34;56.12;95304.47;5074319;28;20478;-77
2023/08/11 07:14:11;;;;;;;6.57;3.13;;;;;;;20.25;55.88;95300.22;5074252;28;20035;-77
2023/08/11 07:16:37;;;;;;;8.75;3.67;;;;;;;20.09;56.69;95301.16;5074257;28;20032;-77
2023/08/11 07:19:02;;;;;;;7.57;3.80;;;;;;;20.20;56.05;95305.22;5073924;28;20028;-77
2023/08/11 07:21:28;;;;;;;6.28;3.13;;;;;;;20.54;56.01;95307.50;5074415;28;20282;-77
2023/08/11 07:23:53;;;;;;;4.90;3.45;;;;;;;20.50;56.15;95304.38;5090901;28;20032;-77
2023/08/11 07:26:19;;;;;;;7.10;3.20;;;;;;;20.92;55.56;95295.13;5090928;28;20059;-77
2023/08/11 07:28:44;;;;;;;6.45;3.35;;;;;;;21.61;52.75;95300.19;5092118;28;20016;-77
2023/08/11 07:31:10;;;;;;;7.43;3.00;;;;;;;21.56;52.34;95296.47;5090688;28;20482;-76
2023/08/11 07:33:35;;;;;;;10.38;3.17;;;;;;;21.39;53.47;95294.00;5073895;28;20024;-76
2023/08/11 07:36:01;;;;;;;4.72;3.35;;;;;;;21.28;53.49;95294.44;5073868;28;20032;-77
2023/08/11 07:38:26;;;;;;;4.93;3.17;;;;;;;21.24;53.80;95306.38;5073816;28;20490;-77
2023/08/11 07:40:52;;;;;;;6.15;3.55;;;;;;;21.02;52.68;95276.38;5090373;28;20028;-77
2023/08/11 07:43:17;;;;;;;4.78;3.00;;;;;;;20.92;52.49;95303.06;5090664;28;20028;-76
2023/08/11 07:45:43;;;;;;;7.45;3.55;;;;;;;20.82;52.04;95302.47;5056897;28;20391;-77
2023/08/11 07:48:08;;;;;;;4.55;3.67;;;;;;;21.23;52.18;95302.09;5056990;28;20036;-76
2023/08/11 07:50:37;;;;;;;5.20;3.10;;;;;;;21.45;51.76;95302.22;5090421;28;20028;-77
2023/08/11 07:53:03;;;;;;;7.20;3.20;;;;;;;21.65;51.00;95298.03;5073520;28;20063;-77
2023/08/11 07:55:28;;;;;;;6.82;3.17;;;;;;;21.68;51.05;95302.94;5090398;28;20035;-77
2023/08/11 07:57:54;;;;;;;5.65;2.97;;;;;;;21.98;50.93;95302.88;5090404;28;20032;-77
2023/08/11 08:00:24;;;;;;;5.53;2.50;;;;;;;21.82;48.17;95307.41;5091460;28;20031;-76
2023/08/11 08:02:50;;;;;;;;;;;;;;;21.84;48.17;95302.75;5074529;28;20502;-76
2023/08/11 08:05:15;;;;;;;6.80;2.88;;;;;;;21.85;48.20;95306.22;5090213;28;19955;-76
2023/08/11 08:07:40;;;;;;;3.88;2.72;;;;;;;21.49;48.16;95295.56;5091875;28;20032;-77
2023/08/11 08:10:08;;;;;;;4.70;2.40;;;;;;;21.40;47.90;95308.06;5073174;28;20039;-76
2023/08/11 08:12:35;;;;;;;2.88;2.35;;;;;;;21.40;48.24;95308.06;5073630;28;20028;-76
2023/08/11 08:15:02;;;;;;;4.43;2.50;;;;;;;21.58;47.06;95302.41;5089961;28;20039;-76
2023/08/11 08:17:27;;;;;;;3.92;2.65;;;;;;;21.91;45.95;95296.72;5091247;28;20020;-77
2023/08/11 08:19:53;;;;;;;2.63;2.13;;;;;;;21.78;45.89;95286.78;5091098;28;20047;-76
2023/08/11 08:22:18;;;;;;;4.68;2.30;;;;;;;21.50;46.92;95281.34;5056612;28;20043;-76
2023/08/11 08:24:44;;;;;;;5.28;2.28;;;;;;;21.75;46.43;95298.53;5072983;28;20032;-76
2023/08/11 08:27:10;;;;;;;2.42;2.00;;;;;;;22.00;45.27;95298.25;5091463;28;20089;-76
2023/08/11 08:29:36;;;;;;;3.92;2.40;;;;;;;22.08;46.17;95301.59;5073206;28;20024;-76
2023/08/11 08:32:01;;;;;;;4.30;2.30;;;;;;;21.87;46.66;95298.91;5091392;28;20043;-76
2023/08/11 08:34:27;;;;;;;3.85;2.15;;;;;;;21.85;46.55;95299.09;5090887;28;20032;-76
2023/08/11 08:36:52;;;;;;;3.72;2.15;;;;;;;21.74;46.36;95296.09;5056328;28;20240;-76
2023/08/11 08:39:17;;;;;;;3.72;2.35;;;;;;;21.57;46.75;95284.91;5089771;28;20505;-76
2023/08/11 08:41:43;;;;;;;4.32;2.22;;;;;;;21.79;46.71;95291.91;5089688;28;20036;-76
2023/08/11 08:44:08;;;;;;;3.10;2.10;;;;;;;22.01;45.15;95287.47;5072862;28;20028;-76
2023/08/11 08:46:34;;;;;;;3.72;2.10;;;;;;;22.02;45.09;95272.44;5089749;28;20036;-76
2023/08/11 08:49:14;;;;;;;3.17;2.28;;;;;;;22.08;44.75;95287.53;5072793;28;20474;-76
2023/08/11 08:51:39;;;;;;;3.97;2.43;;;;;;;22.32;44.65;95285.59;5073188;28;20036;-76
2023/08/11 08:54:08;;;;;;;2.80;2.30;;;;;;;22.54;43.02;95274.00;5076863;28;20085;-76
2023/08/11 08:56:34;;;;;;;2.63;1.98;;;;;;;22.67;42.64;95287.34;5093947;28;20115;-76
2023/08/11 08:59:00;;;;;;;2.58;2.17;;;;;;;22.57;41.89;95276.28;5076939;28;20164;-76
2023/08/11 09:01:25;;;;;;;3.47;2.10;;;;;;;22.24;44.61;95275.94;5093816;28;20098;-76
2023/08/11 09:03:51;;;;;;;4.10;1.88;;;;;;;22.60;42.52;95281.19;5093585;28;20028;-76
2023/08/11 09:06:17;;;;;;;2.53;1.80;;;;;;;22.66;43.30;95296.31;5059994;28;20460;-76
2023/08/11 09:08:43;;;;;;;4.05;2.00;;;;;;;22.90;41.97;95286.31;5093593;28;20032;-76
2023/08/11 09:11:08;;;;;;;3.58;1.90;;;;;;;22.97;43.06;95287.22;5059961;28;20036;-75
2023/08/11 09:13:34;;;;;;;3.15;2.00;;;;;;;22.83;43.18;95288.09;5094685;28;20027;-76
2023/08/11 09:15:59;;;;;;;2.83;2.00;;;;;;;22.84;42.40;95277.28;5093471;28;20366;-76
2023/08/11 09:18:25;;;;;;;3.03;2.03;;;;;;;23.15;40.88;95281.41;5076415;28;20505;-76
2023/08/11 09:20:50;;;;;;;4.28;2.10;;;;;;;23.29;41.13;95279.69;5076339;28;20040;-75
2023/08/11 09:23:17;;;;;;;2.65;2.13;;;;;;;23.32;41.04;95268.72;5093343;28;20031;-76
2023/08/11 09:25:42;;;;;;;2.90;1.83;;;;;;;23.23;41.27;95269.88;5093100;28;20048;-75
2023/08/11 09:28:08;;;;;;;3.28;2.10;;;;;;;23.17;41.43;95271.47;5093370;28;20513;-76
2023/08/11 09:30:33;;;;;;;3.60;1.90;;;;;;;23.26;41.60;95269.47;5076169;28;20109;-76
2023/08/11 09:33:03;;;;;;;4.15;2.00;;;;;;;23.24;41.36;95271.53;5092970;28;20028;-76
2023/08/11 09:35:28;;;;;;;3.17;2.13;;;;;;;23.22;41.15;95260.28;5092897;28;20024;-76
2023/08/11 09:37:54;;;;;;;4.82;2.30;;;;;;;23.15;42.41;95271.66;5076181;28;20028;-76
2023/08/11 09:40:21;;;;;;;2.47;2.00;;;;;;;23.25;41.61;95267.84;5092940;28;20039;-76
2023/08/11 09:42:46;;;;;;;4.28;2.30;;;;;;;23.50;40.58;95271.66;5076284;28;20028;-76
2023/08/11 09:45:12;;;;;;;4.32;2.45;;;;;;;23.27;42.41;95279.06;5059232;28;20478;-75
2023/08/11 09:47:37;;;;;;;4.28;2.15;;;;;;;23.24;42.21;95272.34;5094561;28;20081;-76
2023/08/11 09:50:03;;;;;;;3.00;2.20;;;;;;;22.97;42.66;95276.63;5092770;28;20035;-76
2023/08/11 09:52:30;;;;;;;2.88;2.13;;;;;;;22.79;42.58;95279.72;5059532;28;20066;-76
2023/08/11 09:54:56;;;;;;;4.40;2.35;;;;;;;22.84;43.25;95281.78;5092620;28;20497;-76
2023/08/11 09:57:22;;;;;;;5.20;2.50;;;;;;;22.63;43.01;95275.50;5075981;28;20062;-76
2023/08/11 09:59:47;;;;;;;3.22;2.20;;;;;;;22.37;42.70;95267.31;5092628;28;20044;-76
2023/08/11 10:02:17;;;;;;;3.80;2.20;;;;;;;22.64;43.83;95277.13;5075894;28;20035;-76
2023/08/11 10:04:43;;;;;;;3.67;2.35;;;;;;;22.72;43.45;95266.41;5092831;28;20047;-76
2023/08/11 10:07:13;;;;;;;3.00;2.40;;;;;;;22.87;44.46;95281.41;5075937;28;20051;-76
2023/08/11 10:09:39;;;;;;;4.07;2.45;;;;;;;22.72;42.53;95270.91;5092775;28;20028;-76
2023/08/11 10:12:04;;;;;;;3.55;2.03;;;;;;;22.73;42.85;95268.06;5075645;28;20478;-76
2023/08/11 10:14:30;;;;;;;2.58;2.08;;;;;;;22.53;42.42;95254.63;5075366;28;20113;-76
2023/08/11 10:16:55;;;;;;;3.60;2.45;;;;;;;22.59;41.80;95268.94;5075466;28;20028;-76
2023/08/11 10:19:21;;;;;;;2.38;1.92;;;;;;;22.55;42.13;95254.47;5075191;28;20052;-76
2023/08/11 10:21:46;;;;;;;3.10;2.22;;;;;;;22.71;42.52;95256.03;5058737;28;20528;-76
2023/08/11 10:24:12;;;;;;;3.13;2.13;;;;;;;22.90;42.39;95241.28;5058466;28;20073;-75
2023/08/11 10:26:37;;;;;;;3.08;2.15;;;;;;;22.66;43.00;95238.06;5075406;28;20101;-76
2023/08/11 10:29:03;;;;;;;2.83;2.30;;;;;;;22.93;42.52;95220.53;5058419;28;20047;-76
2023/08/11 10:31:31;;;;;;;2.97;2.00;;;;;;;23.10;40.47;95234.34;5092264;28;20070;-76
2023/08/11 10:33:58;;;;;;;3.10;1.90;;;;;;;22.95;40.34;95230.94;5091876;28;20023;-75
2023/08/11 10:36:25;;;;;;;3.60;2.33;;;;;;;22.83;42.30;95227.19;5075376;28;20032;-76
2023/08/11 10:39:01;;;;;;;3.75;2.17;;;;;;;23.32;40.33;95219.16;5074937;28;20024;-76
2023/08/11 10:41:27;;;;;;;2.90;2.05;;;;;;;23.32;41.06;95224.47;5091954;28;20051;-76
2023/08/11 10:43:52;;;;;;;2.40;1.70;;;;;;;23.76;40.25;95212.63;5091756;28;20020;-76
2023/08/11 10:46:23;;;;;;;3.92;1.77;;;;;;;23.60;39.00;95221.75;5091705;28;20040;-76
2023/08/11 10:48:49;;;;;;;;;;;;;;;23.51;38.42;95228.22;5092182;28;20059;-76
2023/08/11 10:51:30;;;;;;;2.60;1.92;;;;;;;23.55;38.93;95216.22;5091726;28;19920;-76
2023/08/11 10:53:57;;;;;;;2.80;2.10;;;;;;;23.29;39.88;95205.47;5092722;28;20406;-76
2023/08/11 10:56:31;;;;;;;3.03;1.90;;;;;;;23.35;39.80;95210.00;5091685;28;20221;-75
2023/08/11 10:59:19;;;;;;;2.47;1.85;;;;;;;23.24;40.57;95229.13;5074466;28;20489;-76
2023/08/11 11:01:51;;;;;;;3.30;2.30;;;;;;;23.28;41.62;95220.56;5091575;28;20414;-76
2023/08/11 11:04:18;;;;;;;2.58;2.05;;;;;;;23.27;41.28;95218.13;5074983;28;20028;-76
2023/08/11 11:06:44;;;;;;;4.22;2.53;;;;;;;23.27;41.03;95218.13;5091419;28;20521;-75
2023/08/11 11:09:09;;;;;;;3.22;2.28;;;;;;;23.28;41.53;95225.06;5091262;28;20110;-76
2023/08/11 11:11:38;;;;;;;3.22;2.10;;;;;;;23.25;40.85;95233.41;5091325;28;20089;-76
2023/08/11 11:14:07;;;;;;;2.83;2.22;;;;;;;23.51;40.52;95225.56;5090907;28;20478;-76
2023/08/11 11:16:32;;;;;;;2.47;2.10;;;;;;;23.54;41.29;95225.19;5090980;28;20039;-76
2023/08/11 11:19:05;;;;;;;2.85;2.10;;;;;;;23.61;41.94;95220.72;5091033;28;20085;-76
2023/08/11 11:21:31;;;;;;;3.17;2.15;;;;;;;23.56;39.39;95220.50;5092566;28;20074;-75
2023/08/11 11:23:57;;;;;;;2.50;2.10;;;;;;;23.44;40.28;95221.25;5092157;28;20458;-76
2023/08/11 11:26:22;;;;;;;2.35;1.85;;;;;;;23.73;39.71;95217.53;5074108;28;20036;-75
2023/08/11 11:28:49;;;;;;;4.40;2.22;;;;;;;23.51;39.43;95214.97;5090860;28;20031;-75